Time;durP1;ratioP1;P1;durP2;ratioP2;P2;SDS_P1;SDS_P2;PMS_P1;PMS_P2;Temp;Humidity;BMP_temperature;BMP_pressure;BME280_temperature;BME280_humidity;BME280_pressure;Samples;Min_cycle;Max_cycle;Signal;HPM_P1;HPM_P2
2022/10/25 00:00:04;;;;;;;9.07;2.05;;;16.40;99.90;;;;;;5064249;28;25067;-73
2022/10/25 00:02:33;;;;;;;8.88;3.33;;;16.40;99.90;;;;;;5072894;28;25113;-72
2022/10/25 00:04:59;;;;;;;11.55;2.55;;;16.50;99.90;;;;;;5070554;28;25080;-73
2022/10/25 00:07:24;;;;;;;6.07;1.85;;;16.40;99.90;;;;;;5056151;28;25096;-73
2022/10/25 00:09:50;;;;;;;11.43;2.55;;;16.40;99.90;;;;;;5048305;28;25110;-75
2022/10/25 00:12:17;;;;;;;6.45;2.35;;;16.40;99.90;;;;;;5054542;28;25081;-73
2022/10/25 00:14:42;;;;;;;10.52;2.47;;;16.40;99.90;;;;;;5066751;28;25131;-73
2022/10/25 00:17:09;;;;;;;5.38;2.03;;;16.40;99.90;;;;;;5047648;28;25147;-72
2022/10/25 00:19:35;;;;;;;8.70;2.15;;;16.30;99.90;;;;;;5067040;28;25112;-73
2022/10/25 00:22:00;;;;;;;10.75;2.67;;;16.30;99.90;;;;;;5063567;28;25050;-73
2022/10/25 00:24:26;;;;;;;5.20;2.03;;;16.30;99.90;;;;;;5064114;28;25068;-74
2022/10/25 00:26:52;;;;;;;11.95;2.50;;;16.30;99.90;;;;;;5061979;28;25097;-73
2022/10/25 00:29:17;;;;;;;13.70;1.90;;;16.30;99.90;;;;;;5047089;28;25088;-75
2022/10/25 00:31:43;;;;;;;9.68;2.53;;;16.30;99.90;;;;;;5062227;28;25098;-73
2022/10/25 00:34:09;;;;;;;8.55;2.05;;;16.30;99.90;;;;;;5059564;28;25110;-74
2022/10/25 00:36:35;;;;;;;16.50;2.50;;;16.30;99.90;;;;;;5046615;28;25110;-71
2022/10/25 00:39:01;;;;;;;15.50;2.83;;;16.30;99.90;;;;;;5077719;28;25067;-72
2022/10/25 00:41:30;;;;;;;12.10;2.60;;;16.30;99.90;;;;;;5043137;28;25050;-72
2022/10/25 00:44:34;;;;;;;18.13;2.22;;;16.30;99.90;;;;;;5056406;28;25080;-72
2022/10/25 00:47:03;;;;;;;11.73;2.78;;;16.30;99.90;;;;;;5062730;28;25053;-73
2022/10/25 00:49:30;;;;;;;15.20;3.30;;;16.30;99.90;;;;;;5059286;28;25093;-73
2022/10/25 00:52:00;;;;;;;16.17;2.40;;;16.30;99.90;;;;;;5062027;28;25060;-73
2022/10/25 00:54:32;;;;;;;10.68;2.53;;;16.30;99.90;;;;;;5059950;28;25121;-72
2022/10/25 00:57:03;;;;;;;10.30;2.92;;;16.40;99.90;;;;;;5059059;28;25062;-76
2022/10/25 00:59:29;;;;;;;13.30;2.40;;;16.40;99.90;;;;;;5045999;28;25051;-72
2022/10/25 01:01:55;;;;;;;8.55;2.10;;;16.50;99.90;;;;;;5047809;28;25061;-72
2022/10/25 01:04:26;;;;;;;22.52;3.17;;;16.50;99.90;;;;;;5076862;28;25105;-73
2022/10/25 01:06:52;;;;;;;11.23;2.40;;;16.50;99.90;;;;;;5067846;28;25137;-73
2022/10/25 01:09:22;;;;;;;12.70;2.78;;;16.50;99.90;;;;;;5067250;28;25104;-73
2022/10/25 01:11:48;;;;;;;19.08;3.80;;;16.50;99.90;;;;;;5067542;28;25091;-73
2022/10/25 01:14:15;;;;;;;13.05;2.88;;;16.50;99.90;;;;;;5059236;28;25161;-78
2022/10/25 01:17:02;;;;;;;16.52;2.83;;;16.50;99.90;;;;;;5069355;28;25076;-74
2022/10/25 01:20:05;;;;;;;6.50;1.92;;;16.50;99.90;;;;;;5047996;28;25090;-73
2022/10/25 01:22:46;;;;;;;15.13;2.47;;;16.50;99.90;;;;;;5061564;28;25105;-73
2022/10/25 01:25:34;;;;;;;10.48;2.20;;;16.50;99.90;;;;;;5067447;28;25069;-72
2022/10/25 01:28:20;;;;;;;6.50;2.20;;;16.50;99.90;;;;;;5052867;28;25169;-73
2022/10/25 01:30:52;;;;;;;11.57;2.75;;;16.50;99.90;;;;;;5064545;28;25105;-72
2022/10/25 01:33:26;;;;;;;8.73;2.83;;;16.50;99.90;;;;;;5054127;28;25081;-72
2022/10/25 01:36:14;;;;;;;17.60;2.97;;;16.50;99.90;;;;;;5063000;28;25080;-76
2022/10/25 01:38:56;;;;;;;11.68;2.70;;;16.50;99.90;;;;;;5054843;28;25101;-73
2022/10/25 01:41:47;;;;;;;13.05;4.20;;;16.50;99.90;;;;;;5061864;28;25097;-74
2022/10/25 01:44:45;;;;;;;18.88;2.80;;;16.50;99.90;;;;;;5054579;28;25101;-72
2022/10/25 01:47:17;;;;;;;10.52;2.28;;;16.40;99.90;;;;;;5061553;28;25108;-72
2022/10/25 01:50:04;;;;;;;12.05;2.65;;;16.40;99.90;;;;;;5068288;28;25111;-72
2022/10/25 01:52:30;;;;;;;17.13;3.00;;;16.40;99.90;;;;;;5058881;28;25060;-73
2022/10/25 01:54:55;;;;;;;9.57;2.30;;;16.40;99.90;;;;;;5068279;28;25066;-72
2022/10/25 01:57:45;;;;;;;14.75;2.63;;;16.40;99.90;;;;;;5068853;28;25132;-73
2022/10/25 02:00:18;;;;;;;19.88;2.17;;;16.40;99.90;;;;;;5064248;28;25091;-72
2022/10/25 02:02:44;;;;;;;11.93;2.38;;;16.40;99.90;;;;;;5074504;28;25059;-75
2022/10/25 02:05:47;;;;;;;13.13;2.38;;;16.40;99.90;;;;;;5062023;28;25059;-73
2022/10/25 02:08:31;;;;;;;11.02;3.22;;;16.50;99.90;;;;;;5055423;28;25132;-73
2022/10/25 02:11:27;;;;;;;14.25;2.60;;;16.50;99.90;;;;;;5063524;28;25113;-72
2022/10/25 02:14:18;;;;;;;10.32;2.63;;;16.50;99.90;;;;;;5060154;28;25108;-74
2022/10/25 02:17:03;;;;;;;17.75;2.50;;;16.40;99.90;;;;;;5072144;28;25061;-74
2022/10/25 02:19:42;;;;;;;14.30;3.40;;;16.50;99.90;;;;;;5061205;28;25104;-72
2022/10/25 02:22:11;;;;;;;14.85;3.28;;;16.40;99.90;;;;;;5060342;28;25073;-73
2022/10/25 02:24:38;;;;;;;15.20;2.28;;;16.40;99.90;;;;;;5064577;28;25055;-72
2022/10/25 02:27:06;;;;;;;12.00;2.38;;;16.40;99.90;;;;;;5076672;28;24795;-73
2022/10/25 02:29:34;;;;;;;12.20;2.80;;;16.40;99.90;;;;;;5048929;28;25117;-73
2022/10/25 02:32:02;;;;;;;10.52;2.17;;;16.40;99.90;;;;;;5067949;28;25069;-73
2022/10/25 02:34:28;;;;;;;7.15;1.88;;;16.50;99.90;;;;;;5065799;28;25103;-73
2022/10/25 02:36:54;;;;;;;14.93;3.08;;;16.50;99.90;;;;;;5059574;28;25165;-72
2022/10/25 02:39:21;;;;;;;18.35;2.70;;;16.40;99.90;;;;;;5059777;28;25069;-72
2022/10/25 02:41:47;;;;;;;16.60;2.60;;;16.50;99.90;;;;;;5064282;28;25101;-72
2022/10/25 02:44:13;;;;;;;14.50;2.83;;;16.50;99.90;;;;;;5059236;28;25136;-73
2022/10/25 02:46:38;;;;;;;12.43;3.67;;;16.50;99.90;;;;;;5045771;28;25054;-75
2022/10/25 02:49:04;;;;;;;16.23;2.90;;;16.50;99.90;;;;;;5063738;28;25160;-74
2022/10/25 02:51:30;;;;;;;16.15;3.05;;;16.40;99.90;;;;;;5065710;28;25156;-72
2022/10/25 02:53:56;;;;;;;9.02;2.97;;;16.40;99.90;;;;;;5046764;28;25103;-74
2022/10/25 02:56:22;;;;;;;14.15;2.67;;;16.40;99.90;;;;;;5057336;28;25079;-72
2022/10/25 02:58:50;;;;;;;9.60;2.47;;;16.50;99.90;;;;;;5059689;28;25073;-73
2022/10/25 03:01:17;;;;;;;18.83;2.88;;;16.50;99.90;;;;;;5050903;28;25093;-72
2022/10/25 03:03:44;;;;;;;14.95;2.90;;;16.50;99.90;;;;;;5055988;28;25106;-72
2022/10/25 03:06:10;;;;;;;12.77;3.35;;;16.50;99.90;;;;;;5045013;28;25066;-71
2022/10/25 03:08:37;;;;;;;9.60;2.70;;;16.50;99.90;;;;;;5051521;28;25077;-73
2022/10/25 03:11:03;;;;;;;8.70;2.97;;;16.40;99.90;;;;;;5051382;28;25090;-72
2022/10/25 03:13:28;;;;;;;13.00;3.00;;;16.40;99.90;;;;;;5054652;28;24871;-72
2022/10/25 03:15:54;;;;;;;16.10;2.88;;;16.40;99.90;;;;;;5044728;28;25172;-73
2022/10/25 03:18:21;;;;;;;13.73;3.50;;;16.40;99.90;;;;;;5052188;28;25109;-74
2022/10/25 03:20:47;;;;;;;8.57;2.50;;;16.40;99.90;;;;;;5037362;28;25053;-72
2022/10/25 03:23:13;;;;;;;8.73;2.60;;;16.40;99.90;;;;;;5051153;28;25082;-73
2022/10/25 03:25:39;;;;;;;11.98;2.88;;;16.40;99.90;;;;;;5053653;28;25143;-73
2022/10/25 03:28:05;;;;;;;13.80;3.15;;;16.30;99.90;;;;;;5056179;28;25119;-72
2022/10/25 03:30:30;;;;;;;12.23;3.30;;;16.30;99.90;;;;;;5055240;28;25147;-73
2022/10/25 03:32:57;;;;;;;17.65;3.50;;;16.30;99.90;;;;;;5039805;28;25065;-73
2022/10/25 03:35:23;;;;;;;17.98;3.10;;;16.40;99.90;;;;;;5053519;28;25087;-72
2022/10/25 03:37:49;;;;;;;8.65;2.70;;;16.40;99.90;;;;;;5055817;28;25074;-74
2022/10/25 03:40:15;;;;;;;18.17;3.63;;;16.40;99.90;;;;;;5032292;28;25052;-73
2022/10/25 03:42:41;;;;;;;11.80;2.38;;;16.40;99.90;;;;;;5060899;28;25067;-73
2022/10/25 03:45:09;;;;;;;17.25;3.15;;;16.30;99.90;;;;;;5057955;28;25141;-73
2022/10/25 03:47:34;;;;;;;8.02;2.78;;;16.40;99.90;;;;;;5060582;28;25131;-72
2022/10/25 03:50:00;;;;;;;11.30;3.72;;;16.40;99.90;;;;;;5036705;28;25059;-73
2022/10/25 03:52:26;;;;;;;10.63;2.95;;;16.50;99.90;;;;;;5072217;28;25106;-72
2022/10/25 03:54:51;;;;;;;12.48;2.97;;;16.50;99.90;;;;;;5061167;28;25126;-72
2022/10/25 03:57:17;;;;;;;10.20;3.40;;;16.50;99.90;;;;;;5050006;28;25106;-71
2022/10/25 03:59:43;;;;;;;12.77;3.17;;;16.50;99.90;;;;;;5050230;28;25157;-73
2022/10/25 04:02:09;;;;;;;9.98;2.83;;;16.60;99.90;;;;;;5055970;28;25146;-71
2022/10/25 04:04:35;;;;;;;17.42;4.55;;;16.60;99.90;;;;;;5048637;28;25115;-72
2022/10/25 04:07:01;;;;;;;11.65;2.80;;;16.60;99.90;;;;;;5051071;28;25116;-73
2022/10/25 04:09:27;;;;;;;17.67;3.28;;;16.60;99.90;;;;;;5057784;28;25092;-73
2022/10/25 04:11:53;;;;;;;15.13;3.05;;;16.50;99.90;;;;;;5052151;28;25053;-73
2022/10/25 04:14:19;;;;;;;8.75;2.92;;;16.50;99.90;;;;;;5046924;28;25072;-73
2022/10/25 04:16:44;;;;;;;13.40;2.85;;;16.50;99.90;;;;;;5056707;28;25050;-74
2022/10/25 04:19:10;;;;;;;15.45;3.95;;;16.50;99.90;;;;;;5045627;28;25068;-73
2022/10/25 04:21:35;;;;;;;11.38;3.22;;;16.40;99.90;;;;;;5044581;28;25067;-74
2022/10/25 04:24:01;;;;;;;11.27;3.22;;;16.40;99.90;;;;;;5066909;28;25127;-74
2022/10/25 04:26:27;;;;;;;9.48;2.92;;;16.30;99.90;;;;;;5063036;28;25064;-72
2022/10/25 04:28:54;;;;;;;9.75;2.45;;;16.30;99.90;;;;;;5043364;28;25051;-71
2022/10/25 04:31:21;;;;;;;9.73;3.90;;;16.30;99.90;;;;;;5061550;28;25144;-71
2022/10/25 04:33:48;;;;;;;12.23;2.83;;;16.20;99.90;;;;;;5059712;28;25068;-72
2022/10/25 04:36:13;;;;;;;11.52;2.78;;;16.20;99.90;;;;;;5059038;28;25079;-72
2022/10/25 04:38:39;;;;;;;7.78;2.85;;;16.20;99.90;;;;;;5060526;28;25103;-72
2022/10/25 04:41:05;;;;;;;10.75;2.15;;;16.20;99.90;;;;;;5056688;28;25118;-72
2022/10/25 04:43:30;;;;;;;7.32;2.50;;;16.20;99.90;;;;;;5063827;28;25105;-72
2022/10/25 04:45:59;;;;;;;10.55;2.88;;;16.10;99.90;;;;;;5049893;28;25087;-70
2022/10/25 04:48:24;;;;;;;8.25;2.38;;;16.10;99.90;;;;;;5049546;28;25073;-71
2022/10/25 04:50:50;;;;;;;9.52;2.63;;;16.10;99.90;;;;;;5066762;28;25115;-74
2022/10/25 04:53:16;;;;;;;7.25;2.55;;;16.10;99.90;;;;;;5071007;28;25180;-74
2022/10/25 04:55:42;;;;;;;7.40;2.25;;;16.10;99.90;;;;;;5056293;28;25105;-71
2022/10/25 04:58:07;;;;;;;10.95;2.08;;;16.10;99.90;;;;;;5063339;28;25092;-75
2022/10/25 05:00:33;;;;;;;10.63;2.58;;;16.10;99.90;;;;;;5062187;28;25066;-72
2022/10/25 05:02:58;;;;;;;14.05;5.00;;;16.10;99.90;;;;;;5059320;28;25074;-72
2022/10/25 05:05:24;;;;;;;19.20;3.10;;;16.10;99.90;;;;;;5060045;28;25063;-72
2022/10/25 05:07:50;;;;;;;8.50;2.22;;;16.10;99.90;;;;;;5069325;28;25138;-72
2022/10/25 05:10:16;;;;;;;10.73;2.65;;;16.20;99.90;;;;;;5057127;28;25077;-72
2022/10/25 05:12:42;;;;;;;15.38;2.85;;;16.20;99.90;;;;;;5067572;28;25074;-72
2022/10/25 05:15:08;;;;;;;11.32;3.40;;;16.10;99.90;;;;;;5059940;28;25073;-72
2022/10/25 05:17:34;;;;;;;12.32;2.97;;;16.20;99.90;;;;;;5062455;28;25064;-72
2022/10/25 05:19:59;;;;;;;12.65;3.35;;;16.10;99.90;;;;;;5066506;28;25106;-72
2022/10/25 05:22:25;;;;;;;13.65;2.75;;;16.10;99.90;;;;;;5060636;28;25140;-73
2022/10/25 05:24:51;;;;;;;11.45;3.08;;;16.20;99.90;;;;;;5068248;28;25091;-71
2022/10/25 05:27:17;;;;;;;9.48;3.17;;;16.10;99.90;;;;;;5067451;28;25132;-75
2022/10/25 05:29:42;;;;;;;14.23;4.45;;;16.10;99.90;;;;;;5056897;28;25056;-72
2022/10/25 05:32:08;;;;;;;12.70;3.38;;;16.00;99.90;;;;;;5065761;28;25064;-73
2022/10/25 05:34:33;;;;;;;8.02;3.45;;;16.00;99.90;;;;;;5060134;28;25063;-73
2022/10/25 05:36:59;;;;;;;10.95;3.92;;;16.00;99.90;;;;;;5043678;28;25486;-72
2022/10/25 05:39:25;;;;;;;9.93;3.10;;;15.90;99.90;;;;;;5063016;28;25096;-72
2022/10/25 05:41:50;;;;;;;5.97;3.38;;;15.90;99.90;;;;;;5043444;28;25091;-72
2022/10/25 05:44:16;;;;;;;6.75;2.78;;;15.90;99.90;;;;;;5058582;28;25150;-73
2022/10/25 05:46:43;;;;;;;5.90;3.20;;;15.90;99.90;;;;;;5057046;28;25082;-71
2022/10/25 05:49:10;;;;;;;11.70;3.83;;;15.90;99.90;;;;;;5053633;28;25112;-73
2022/10/25 05:51:36;;;;;;;6.63;3.10;;;15.90;99.90;;;;;;5050967;28;25066;-72
2022/10/25 05:54:09;;;;;;;9.25;3.60;;;15.90;99.90;;;;;;5062235;28;25060;-76
2022/10/25 05:56:35;;;;;;;6.15;3.50;;;15.90;99.90;;;;;;5040635;28;25056;-72
2022/10/25 05:59:09;;;;;;;6.40;3.45;;;15.90;99.90;;;;;;5063060;28;25069;-73
2022/10/25 06:01:36;;;;;;;11.18;3.30;;;15.90;99.90;;;;;;5058062;28;25138;-72
2022/10/25 06:04:02;;;;;;;8.05;3.10;;;15.80;99.90;;;;;;5051690;28;25097;-73
2022/10/25 06:06:27;;;;;;;7.90;3.60;;;15.90;99.90;;;;;;5058681;28;25121;-72
2022/10/25 06:08:58;;;;;;;12.18;3.60;;;15.80;99.90;;;;;;5068803;28;25076;-72
2022/10/25 06:11:24;;;;;;;12.90;3.88;;;15.80;99.90;;;;;;5068296;28;25119;-73
2022/10/25 06:13:50;;;;;;;7.80;3.28;;;15.80;99.90;;;;;;5047320;28;25087;-76
2022/10/25 06:16:18;;;;;;;12.85;4.40;;;15.80;99.90;;;;;;5071186;28;25162;-72
2022/10/25 06:18:44;;;;;;;9.73;4.40;;;15.80;99.90;;;;;;5072840;28;25053;-72
2022/10/25 06:21:18;;;;;;;11.32;3.60;;;15.80;99.90;;;;;;5069455;28;25111;-73
2022/10/25 06:23:45;;;;;;;8.75;4.07;;;15.80;99.90;;;;;;5076851;28;25060;-72
2022/10/25 06:26:13;;;;;;;13.68;4.13;;;15.80;99.90;;;;;;5071169;28;25115;-73
2022/10/25 06:28:40;;;;;;;10.20;4.32;;;15.90;99.90;;;;;;5064567;28;25144;-71
2022/10/25 06:31:09;;;;;;;9.27;4.30;;;15.90;99.90;;;;;;5059252;28;25059;-74
2022/10/25 06:33:35;;;;;;;16.85;5.45;;;16.00;99.90;;;;;;5055874;28;25171;-75
2022/10/25 06:36:03;;;;;;;8.10;4.55;;;16.10;99.90;;;;;;5061767;28;25072;-72
2022/10/25 06:38:29;;;;;;;11.23;4.90;;;16.00;99.90;;;;;;5064288;28;25071;-73
2022/10/25 06:41:03;;;;;;;12.57;5.68;;;16.00;99.90;;;;;;5064086;28;25100;-72
2022/10/25 06:43:29;;;;;;;13.57;5.28;;;16.10;99.90;;;;;;5050840;28;25126;-73
2022/10/25 06:45:55;;;;;;;19.48;5.85;;;16.10;99.90;;;;;;5055432;28;25111;-73
2022/10/25 06:48:20;;;;;;;15.43;6.85;;;16.10;99.90;;;;;;5064528;28;25082;-76
2022/10/25 06:50:47;;;;;;;9.57;5.10;;;16.00;99.90;;;;;;5057590;28;25056;-72
2022/10/25 06:53:13;;;;;;;14.73;5.38;;;16.00;99.90;;;;;;5061988;28;25090;-73
2022/10/25 06:55:39;;;;;;;10.98;5.35;;;16.00;99.90;;;;;;5056386;28;25147;-75
2022/10/25 06:58:04;;;;;;;12.38;5.10;;;16.00;99.90;;;;;;5048397;28;25077;-72
2022/10/25 07:00:30;;;;;;;15.50;5.22;;;16.00;99.90;;;;;;5061487;28;25104;-73
2022/10/25 07:02:57;;;;;;;12.15;4.55;;;15.90;99.90;;;;;;5063222;28;25075;-73
2022/10/25 07:05:23;;;;;;;9.95;3.97;;;15.80;99.90;;;;;;5039001;28;25064;-72
2022/10/25 07:07:50;;;;;;;12.35;4.10;;;15.90;99.90;;;;;;5069897;28;25061;-73
2022/10/25 07:10:16;;;;;;;13.32;4.80;;;15.90;99.90;;;;;;5069138;28;25059;-72
2022/10/25 07:12:42;;;;;;;9.73;5.20;;;15.90;99.90;;;;;;5075227;28;25056;-72
2022/10/25 07:15:08;;;;;;;7.20;3.85;;;15.90;99.90;;;;;;5064619;28;25054;-73
2022/10/25 07:17:34;;;;;;;11.32;3.95;;;15.90;99.90;;;;;;5067806;28;25059;-72
2022/10/25 07:19:59;;;;;;;13.77;5.15;;;15.90;99.90;;;;;;5068778;28;25095;-74
2022/10/25 07:22:25;;;;;;;15.63;5.13;;;16.00;99.90;;;;;;5052454;28;25080;-73
2022/10/25 07:24:50;;;;;;;15.68;4.47;;;15.90;99.90;;;;;;5053877;28;25078;-73
2022/10/25 07:27:16;;;;;;;10.52;4.80;;;16.00;99.90;;;;;;5056426;28;25088;-73
2022/10/25 07:29:42;;;;;;;13.43;5.40;;;16.00;99.90;;;;;;5059090;28;25080;-77
2022/10/25 07:32:08;;;;;;;9.45;4.60;;;16.00;99.90;;;;;;5060679;28;26225;-72
2022/10/25 07:34:34;;;;;;;12.30;4.43;;;16.10;99.90;;;;;;5057947;28;25060;-73
2022/10/25 07:37:00;;;;;;;5.78;4.43;;;16.20;99.90;;;;;;5063780;28;25070;-73
2022/10/25 07:39:25;;;;;;;8.75;4.65;;;16.20;99.90;;;;;;5072536;28;25150;-71
2022/10/25 07:41:52;;;;;;;8.10;4.65;;;16.20;99.90;;;;;;5067231;28;25181;-73
2022/10/25 07:44:21;;;;;;;12.77;5.38;;;16.00;99.90;;;;;;5065481;28;25149;-71
2022/10/25 07:46:47;;;;;;;9.63;5.18;;;16.00;99.90;;;;;;5074909;28;25064;-74
2022/10/25 07:49:13;;;;;;;8.85;4.82;;;16.10;99.90;;;;;;5045040;28;25055;-73
2022/10/25 07:51:39;;;;;;;11.00;4.60;;;16.10;99.90;;;;;;5046791;28;25083;-72
2022/10/25 07:54:04;;;;;;;11.15;4.32;;;16.00;99.90;;;;;;5068743;28;25066;-72
2022/10/25 07:56:30;;;;;;;8.10;4.28;;;16.00;99.90;;;;;;5063535;28;25065;-75
2022/10/25 07:58:56;;;;;;;12.32;4.45;;;16.00;99.90;;;;;;5048230;28;25108;-72
2022/10/25 08:01:26;;;;;;;13.05;4.63;;;15.90;99.90;;;;;;5054702;28;25099;-72
2022/10/25 08:03:53;;;;;;;11.68;5.25;;;15.90;99.90;;;;;;5064077;28;25155;-72
2022/10/25 08:06:20;;;;;;;10.82;4.63;;;15.90;99.90;;;;;;5065737;28;25104;-73
2022/10/25 08:08:46;;;;;;;9.25;4.63;;;15.90;99.90;;;;;;5047129;28;25127;-72
2022/10/25 08:11:12;;;;;;;10.95;4.20;;;16.00;99.90;;;;;;5052775;28;25095;-72
2022/10/25 08:13:38;;;;;;;11.27;4.30;;;15.90;99.90;;;;;;5065877;28;25060;-74
2022/10/25 08:16:05;;;;;;;9.70;4.50;;;15.90;99.90;;;;;;5063464;28;25072;-73
2022/10/25 08:18:31;;;;;;;12.55;4.10;;;15.90;99.90;;;;;;5063102;28;24956;-72
2022/10/25 08:20:59;;;;;;;14.68;4.32;;;15.90;99.90;;;;;;5072510;28;25093;-73
2022/10/25 08:23:24;;;;;;;11.27;4.72;;;15.90;99.90;;;;;;5065929;28;25143;-73
2022/10/25 08:25:50;;;;;;;10.30;4.40;;;15.90;99.90;;;;;;5065522;28;25061;-73
2022/10/25 08:28:16;;;;;;;9.73;4.72;;;15.90;99.90;;;;;;5075975;28;25059;-74
2022/10/25 08:30:42;;;;;;;15.45;4.75;;;16.00;99.90;;;;;;5061112;28;25048;-71
2022/10/25 08:33:08;;;;;;;9.70;4.47;;;16.00;99.90;;;;;;5070093;28;25104;-73
2022/10/25 08:35:33;;;;;;;14.30;5.50;;;16.00;99.90;;;;;;5072687;28;25058;-73
2022/10/25 08:38:00;;;;;;;8.27;4.35;;;15.90;99.90;;;;;;5068872;28;25097;-76
2022/10/25 08:40:44;;;;;;;17.65;4.55;;;15.80;99.90;;;;;;5053650;28;25065;-75
2022/10/25 08:43:30;;;;;;;11.93;5.28;;;15.90;99.90;;;;;;5052917;28;25132;-73
2022/10/25 08:46:33;;;;;;;14.45;4.68;;;16.00;99.90;;;;;;5065752;28;25084;-72
2022/10/25 08:49:31;;;;;;;8.63;3.75;;;15.90;99.90;;;;;;4973814;28;25072;-74
2022/10/25 08:51:58;;;;;;;10.55;4.70;;;16.00;99.90;;;;;;5066639;28;25263;-73
2022/10/25 08:54:34;;;;;;;17.95;4.65;;;15.90;99.90;;;;;;5065433;28;25074;-78
2022/10/25 08:57:32;;;;;;;16.45;5.22;;;16.00;99.90;;;;;;5060590;28;25067;-76
2022/10/25 09:00:06;;;;;;;9.20;5.30;;;16.10;99.90;;;;;;5040881;28;25081;-74
2022/10/25 09:02:54;;;;;;;11.02;5.85;;;16.20;99.90;;;;;;5052467;28;25067;-76
2022/10/25 09:05:53;;;;;;;16.38;7.30;;;16.20;99.90;;;;;;5067891;28;25103;-75
2022/10/25 09:08:41;;;;;;;17.85;6.32;;;16.30;99.90;;;;;;5070875;28;25072;-74
2022/10/25 09:11:18;;;;;;;16.40;6.32;;;16.30;99.90;;;;;;5057384;28;25061;-75
2022/10/25 09:14:03;;;;;;;15.43;6.40;;;16.40;99.90;;;;;;5061724;28;25108;-73
2022/10/25 09:16:38;;;;;;;17.88;6.55;;;16.40;99.90;;;;;;5068408;28;25080;-75
2022/10/25 09:19:20;;;;;;;17.58;7.10;;;16.40;99.90;;;;;;5064182;28;25149;-75
2022/10/25 09:21:46;;;;;;;20.00;7.30;;;16.40;99.90;;;;;;5060018;28;25061;-75
2022/10/25 09:24:33;;;;;;;10.00;6.72;;;16.50;99.90;;;;;;5072333;28;25072;-74
2022/10/25 09:27:04;;;;;;;12.10;6.72;;;16.40;99.90;;;;;;5060290;28;25105;-75
2022/10/25 09:29:37;;;;;;;12.10;6.70;;;16.40;99.90;;;;;;5083052;28;25125;-74
2022/10/25 09:32:13;;;;;;;11.75;6.80;;;16.40;99.90;;;;;;5049119;28;25179;-75
2022/10/25 09:34:39;;;;;;;13.40;6.00;;;16.40;99.90;;;;;;5056518;28;25140;-73
2022/10/25 09:37:38;;;;;;;13.15;5.63;;;16.50;99.90;;;;;;5065658;28;25059;-73
2022/10/25 09:40:13;;;;;;;7.85;4.25;;;16.50;99.90;;;;;;5065588;28;25096;-75
2022/10/25 09:42:49;;;;;;;12.13;4.50;;;16.30;99.90;;;;;;5048700;28;25134;-73
2022/10/25 09:45:29;;;;;;;11.25;4.13;;;16.30;99.90;;;;;;5068286;28;25139;-74
2022/10/25 09:48:15;;;;;;;12.13;4.25;;;16.30;99.90;;;;;;5059803;28;25072;-74
2022/10/25 09:50:44;;;;;;;11.95;4.47;;;16.40;99.90;;;;;;5050383;28;25136;-76
2022/10/25 09:53:12;;;;;;;13.38;4.57;;;16.50;99.90;;;;;;5057021;28;25118;-75
2022/10/25 09:55:57;;;;;;;12.63;4.40;;;16.50;99.90;;;;;;5067742;28;25147;-72
2022/10/25 09:58:31;;;;;;;10.57;4.10;;;16.40;99.90;;;;;;5067553;28;25072;-73
2022/10/25 10:01:02;;;;;;;13.90;4.03;;;16.40;99.90;;;;;;5064006;28;25063;-74
2022/10/25 10:03:30;;;;;;;8.13;4.60;;;16.50;99.90;;;;;;5070530;28;25067;-73
2022/10/25 10:05:59;;;;;;;9.18;3.63;;;16.70;99.90;;;;;;5063403;28;25145;-72
2022/10/25 10:08:26;;;;;;;11.95;3.67;;;16.50;99.90;;;;;;5072434;28;25095;-73
2022/10/25 10:10:53;;;;;;;11.35;3.63;;;16.50;99.90;;;;;;5079039;28;25143;-73
2022/10/25 10:13:41;;;;;;;10.27;3.72;;;16.50;99.90;;;;;;5063533;28;25067;-75
2022/10/25 10:16:26;;;;;;;11.98;3.65;;;16.50;99.90;;;;;;5068528;28;25070;-75
2022/10/25 10:19:11;;;;;;;8.90;3.63;;;16.60;99.90;;;;;;5072670;28;25165;-75
2022/10/25 10:21:42;;;;;;;6.60;3.60;;;16.60;99.90;;;;;;5076114;28;25102;-74
2022/10/25 10:24:26;;;;;;;10.90;3.53;;;16.50;99.90;;;;;;5074399;28;25082;-74
2022/10/25 10:26:56;;;;;;;13.73;4.10;;;16.50;99.90;;;;;;5075792;28;25058;-74
2022/10/25 10:29:33;;;;;;;13.93;4.95;;;16.60;99.90;;;;;;5073598;28;25060;-73
2022/10/25 10:32:06;;;;;;;9.15;4.35;;;16.70;99.90;;;;;;5071724;28;25142;-77
2022/10/25 10:34:43;;;;;;;15.00;5.18;;;16.80;99.90;;;;;;5044112;28;25062;-73
2022/10/25 10:37:36;;;;;;;12.38;5.72;;;16.80;99.90;;;;;;5056825;28;25146;-74
2022/10/25 10:40:22;;;;;;;12.75;6.45;;;16.90;99.90;;;;;;5065241;28;25073;-73
2022/10/25 10:42:48;;;;;;;12.95;6.28;;;16.80;99.90;;;;;;5063735;28;25167;-76
2022/10/25 10:45:17;;;;;;;11.65;5.38;;;16.90;99.90;;;;;;5072795;28;25109;-74
2022/10/25 10:47:48;;;;;;;13.32;5.35;;;17.00;99.90;;;;;;5078459;28;25166;-72
2022/10/25 10:50:23;;;;;;;17.83;6.05;;;17.20;99.90;;;;;;5066316;28;24851;-75
2022/10/25 10:52:59;;;;;;;11.05;5.25;;;17.30;99.90;;;;;;5070337;28;25130;-76
2022/10/25 10:55:49;;;;;;;12.10;5.93;;;17.30;99.90;;;;;;5055554;28;25075;-77
2022/10/25 10:58:31;;;;;;;14.02;5.60;;;17.30;99.90;;;;;;5055952;28;25137;-75
2022/10/25 11:01:04;;;;;;;11.77;5.25;;;17.20;99.90;;;;;;5057681;28;25112;-77
2022/10/25 11:03:42;;;;;;;13.38;4.88;;;17.30;99.90;;;;;;5067905;28;25063;-74
2022/10/25 11:06:25;;;;;;;15.98;4.85;;;17.10;99.90;;;;;;5065426;28;25148;-74
2022/10/25 11:09:15;;;;;;;11.07;5.05;;;17.10;99.90;;;;;;5044257;28;25081;-72
2022/10/25 11:11:42;;;;;;;10.20;4.65;;;17.30;99.90;;;;;;5046775;28;25140;-75
2022/10/25 11:14:12;;;;;;;19.52;4.90;;;17.20;99.90;;;;;;5061037;28;25070;-78
2022/10/25 11:17:07;;;;;;;7.40;4.60;;;17.10;99.90;;;;;;5071395;28;25085;-75
2022/10/25 11:20:10;;;;;;;16.58;4.75;;;17.30;99.90;;;;;;5060455;28;25069;-74
2022/10/25 11:22:47;;;;;;;9.13;4.18;;;17.20;99.90;;;;;;5050305;28;25057;-74
2022/10/25 11:25:27;;;;;;;11.07;4.38;;;17.00;99.90;;;;;;5068927;28;25108;-74
2022/10/25 11:28:14;;;;;;;14.55;4.90;;;17.10;99.90;;;;;;5069158;28;25100;-74
2022/10/25 11:30:45;;;;;;;15.93;5.18;;;17.00;99.90;;;;;;5048486;28;25118;-74
2022/10/25 11:33:37;;;;;;;10.13;5.32;;;17.00;99.90;;;;;;5065646;28;25132;-76
2022/10/25 11:36:11;;;;;;;12.43;4.68;;;17.00;99.90;;;;;;5060187;28;25058;-73
2022/10/25 11:39:07;;;;;;;12.98;4.57;;;16.90;99.90;;;;;;5064654;28;25094;-74
2022/10/25 11:41:46;;;;;;;11.13;4.28;;;16.90;99.90;;;;;;5066703;28;25074;-75
2022/10/25 11:44:29;;;;;;;10.82;3.70;;;17.30;99.90;;;;;;5068708;28;25053;-74
2022/10/25 11:47:13;;;;;;;12.07;4.85;;;17.40;99.90;;;;;;5040422;28;25071;-76
2022/10/25 11:50:04;;;;;;;12.45;4.13;;;17.60;99.90;;;;;;5063167;28;25073;-74
2022/10/25 11:52:57;;;;;;;12.43;3.78;;;17.80;99.90;;;;;;5045489;28;25059;-73
2022/10/25 11:55:41;;;;;;;12.45;3.72;;;17.90;99.90;;;;;;5070439;28;25103;-74
2022/10/25 11:58:32;;;;;;;7.47;3.30;;;17.70;99.90;;;;;;5050641;28;25166;-73
2022/10/25 12:01:31;;;;;;;10.32;2.80;;;17.90;99.90;;;;;;5068981;28;25105;-75
2022/10/25 12:04:05;;;;;;;4.32;2.70;;;18.30;99.90;;;;;;5056581;28;25059;-74
2022/10/25 12:06:54;;;;;;;10.65;3.55;;;18.60;99.90;;;;;;5055608;28;25058;-73
2022/10/25 12:09:33;;;;;;;10.60;2.83;;;18.70;99.90;;;;;;5061984;28;25108;-72
2022/10/25 12:12:04;;;;;;;11.35;3.10;;;18.70;99.90;;;;;;5067740;28;25136;-74
2022/10/25 12:14:38;;;;;;;9.52;2.97;;;18.90;99.90;;;;;;5063093;28;25147;-74
2022/10/25 12:17:20;;;;;;;5.85;2.80;;;19.10;99.90;;;;;;5076663;28;25078;-74
2022/10/25 12:19:48;;;;;;;;;;;19.00;99.90;;;;;;5074263;28;25075;-73
2022/10/25 12:22:21;;;;;;;7.88;2.10;;;18.70;99.90;;;;;;5076452;28;25141;-73
2022/10/25 12:24:50;;;;;;;7.28;2.40;;;18.70;99.90;;;;;;5090093;28;25020;-74
2022/10/25 12:27:17;;;;;;;7.55;2.40;;;19.10;99.90;;;;;;5071222;28;25099;-74
2022/10/25 12:29:48;;;;;;;5.05;2.30;;;19.20;99.90;;;;;;5072038;28;25064;-74
2022/10/25 12:32:21;;;;;;;11.55;2.83;;;18.70;99.90;;;;;;5071020;28;25065;-73
2022/10/25 12:34:52;;;;;;;8.52;2.78;;;18.40;99.90;;;;;;5065641;28;25052;-72
2022/10/25 12:37:25;;;;;;;8.83;2.33;;;18.70;99.90;;;;;;5067535;28;25055;-73
2022/10/25 12:39:51;;;;;;;10.65;3.00;;;18.50;99.90;;;;;;5074462;28;25115;-74
2022/10/25 12:42:22;;;;;;;3.95;2.40;;;18.30;99.90;;;;;;5078454;28;25070;-74
2022/10/25 12:45:15;;;;;;;8.13;3.42;;;18.10;99.90;;;;;;5086000;28;25123;-74
2022/10/25 12:48:06;;;;;;;8.13;3.75;;;18.00;99.90;;;;;;5079870;28;25121;-74
2022/10/25 12:50:43;;;;;;;13.73;2.88;;;18.60;99.90;;;;;;5069296;28;25048;-72
2022/10/25 12:53:27;;;;;;;9.15;2.15;;;18.90;99.90;;;;;;5061525;28;25088;-73
2022/10/25 12:55:58;;;;;;;8.38;2.42;;;19.10;99.90;;;;;;5068259;28;25139;-73
2022/10/25 12:58:34;;;;;;;7.75;2.03;;;19.00;99.90;;;;;;5057833;28;25068;-74
2022/10/25 13:01:12;;;;;;;6.07;1.52;;;19.00;99.90;;;;;;5049718;28;25073;-73
2022/10/25 13:04:16;;;;;;;9.63;2.72;;;19.20;99.90;;;;;;5074263;28;25107;-72